Archival Weather

Chicago O'Hare International

Chicago, Illinois (KORD)

Report from: Tuesday, February 27, 2024 10:51 PM CST
Current time: Wednesday, May 29, 2024 8:03 PM CDT

Current weather – Weather history – Daily summaries
Weather forecast

Temperature12.2°C (54.0°F)
Dew point10.0°C (50.0°F)
Winds 9 kts (4.6 m/s, 10.4 mph) West-Southwest (250°)
Visibility10 mi. (16.1 km)
Clouds Few clouds 5,000 ft. (1,524 m)
Altimeter29.22 in.Hg (990 mB)
Relative humidity86 %
Density altitude-2,664 ft. (-812 m)
Sea-level pressure108.9 kPa (1089 mB, 32.16 in.Hg)
Remarks System requires maintenance
Automated weather observing station with precipitation discriminator
Flight conditions Visual Meteorological Conditions
Raw dataKORD 280451Z 25009KT 10SM FEW050 12/10 A2922 RMK AO2 SLP892 T01220100 $
An error has occurred. This application may no longer respond until reloaded. Reload 🗙